Time;durP1;ratioP1;P1;durP2;ratioP2;P2;SDS_P1;SDS_P2;PMS_P1;PMS_P2;Temp;Humidity;BMP_temperature;BMP_pressure;BME280_temperature;BME280_humidity;BME280_pressure;Samples;Min_cycle;Max_cycle;Signal;HPM_P1;HPM_P2
2024/02/24 00:01:57;;;;;;;7.15;4.85;;;9.80;99.90;;;;;;5012412;28;20214;-78
2024/02/24 00:04:28;;;;;;;5.72;5.18;;;9.80;99.90;;;;;;5013828;28;20661;-80
2024/02/24 00:06:56;;;;;;;8.32;4.70;;;9.80;99.90;;;;;;5014009;28;20226;-80
2024/02/24 00:09:23;;;;;;;5.35;4.85;;;9.80;99.90;;;;;;5012573;28;20249;-79
2024/02/24 00:11:50;;;;;;;4.70;4.00;;;9.70;99.90;;;;;;5015183;28;20668;-79
2024/02/24 00:14:17;;;;;;;6.47;4.88;;;9.70;99.90;;;;;;5015051;28;20234;-80
2024/02/24 00:16:44;;;;;;;4.45;3.65;;;9.70;99.90;;;;;;5015708;28;20308;-80
2024/02/24 00:19:11;;;;;;;4.95;4.10;;;9.70;99.90;;;;;;5014854;28;20214;-80
2024/02/24 00:21:40;;;;;;;4.18;3.63;;;9.70;99.90;;;;;;5012371;28;20304;-80
2024/02/24 00:24:07;;;;;;;4.45;3.83;;;9.70;99.90;;;;;;5015007;28;20240;-80
2024/02/24 00:26:39;;;;;;;4.15;3.38;;;9.70;99.90;;;;;;5016074;28;20222;-79
2024/02/24 00:29:08;;;;;;;3.63;2.70;;;9.60;99.90;;;;;;5013542;28;20229;-80
2024/02/24 00:31:35;;;;;;;3.55;2.92;;;9.70;99.90;;;;;;5014763;28;20240;-81
2024/02/24 00:34:02;;;;;;;4.03;3.30;;;9.70;99.90;;;;;;5014939;28;20953;-79
2024/02/24 00:36:29;;;;;;;3.33;2.97;;;9.70;99.90;;;;;;5014505;28;20247;-79
2024/02/24 00:38:58;;;;;;;2.92;2.63;;;9.70;99.90;;;;;;5015493;28;20229;-81
2024/02/24 00:41:38;;;;;;;3.38;2.78;;;9.70;99.90;;;;;;5003708;28;20337;-80
2024/02/24 00:44:06;;;;;;;4.70;2.78;;;9.80;99.90;;;;;;5014531;28;20298;-80
2024/02/24 00:46:33;;;;;;;3.65;3.28;;;9.80;99.90;;;;;;5015166;28;20218;-80
2024/02/24 00:49:03;;;;;;;2.80;2.55;;;9.80;99.90;;;;;;5022963;28;20308;-81
2024/02/24 00:51:48;;;;;;;3.55;2.80;;;9.90;99.90;;;;;;5013299;28;20578;-80
2024/02/24 00:54:16;;;;;;;5.68;3.10;;;9.90;99.90;;;;;;5033841;28;20257;-78
2024/02/24 00:56:43;;;;;;;2.90;2.70;;;9.90;99.90;;;;;;5017546;28;20218;-78
2024/02/24 00:59:12;;;;;;;3.60;2.70;;;9.90;99.90;;;;;;5014946;28;20608;-78
2024/02/24 01:01:39;;;;;;;4.55;2.80;;;9.90;99.90;;;;;;5013461;28;20210;-78
2024/02/24 01:04:06;;;;;;;3.35;3.05;;;9.90;99.90;;;;;;5014628;28;20244;-78
2024/02/24 01:06:33;;;;;;;3.55;3.22;;;10.00;99.60;;;;;;5014611;28;20222;-78
2024/02/24 01:09:00;;;;;;;2.95;2.67;;;9.90;99.90;;;;;;5014787;28;20236;-78
2024/02/24 01:11:29;;;;;;;3.35;3.03;;;9.90;99.90;;;;;;5014283;28;20287;-78
2024/02/24 01:13:56;;;;;;;4.53;2.92;;;9.90;99.90;;;;;;5013273;28;20229;-78
2024/02/24 01:16:25;;;;;;;4.20;3.05;;;9.90;99.90;;;;;;5015238;28;20230;-78
2024/02/24 01:18:53;;;;;;;3.38;3.00;;;10.00;99.70;;;;;;5014795;28;20313;-78
2024/02/24 01:21:22;;;;;;;5.70;3.13;;;9.90;99.90;;;;;;5024648;28;20248;-78
2024/02/24 01:23:49;;;;;;;8.73;3.40;;;9.90;99.90;;;;;;5034071;28;20233;-78
2024/02/24 01:26:16;;;;;;;3.22;3.00;;;9.90;99.90;;;;;;5019300;28;20233;-78
2024/02/24 01:28:51;;;;;;;5.43;3.30;;;9.90;99.90;;;;;;5013849;28;20252;-78
2024/02/24 01:31:21;;;;;;;4.32;3.22;;;9.90;99.90;;;;;;5026426;28;20228;-80
2024/02/24 01:33:48;;;;;;;4.55;3.65;;;9.80;99.90;;;;;;5006480;28;20315;-80
2024/02/24 01:36:15;;;;;;;4.15;3.47;;;9.80;99.90;;;;;;5007226;28;20218;-80
2024/02/24 01:38:42;;;;;;;6.82;3.63;;;9.70;99.90;;;;;;5003449;28;20699;-78
2024/02/24 01:41:09;;;;;;;3.70;3.10;;;9.70;99.90;;;;;;4996235;28;20250;-77
2024/02/24 01:43:37;;;;;;;6.45;3.33;;;9.70;99.90;;;;;;5015959;28;20321;-79
2024/02/24 01:46:08;;;;;;;3.40;3.10;;;9.70;99.90;;;;;;5022269;28;20301;-80
2024/02/24 01:48:36;;;;;;;4.30;2.75;;;9.60;99.90;;;;;;5012805;28;20864;-80
2024/02/24 01:51:04;;;;;;;3.72;3.35;;;9.60;99.90;;;;;;5032474;28;20253;-80
2024/02/24 01:53:32;;;;;;;3.50;2.85;;;9.60;99.90;;;;;;5011831;28;20234;-80
2024/02/24 01:56:01;;;;;;;6.20;4.28;;;9.60;99.90;;;;;;5026763;28;20626;-78
2024/02/24 01:58:30;;;;;;;4.32;3.10;;;9.60;99.90;;;;;;5033123;28;20225;-78
2024/02/24 02:00:58;;;;;;;5.15;3.40;;;9.60;99.90;;;;;;5032857;28;20233;-80
2024/02/24 02:03:27;;;;;;;4.75;3.65;;;9.60;99.90;;;;;;5032051;28;20226;-78
2024/02/24 02:05:54;;;;;;;3.38;3.08;;;9.50;99.90;;;;;;5013419;28;20249;-78
2024/02/24 02:08:21;;;;;;;5.18;4.13;;;9.50;99.90;;;;;;5013791;28;20309;-78
2024/02/24 02:10:51;;;;;;;4.47;3.17;;;9.50;99.90;;;;;;5013235;28;20313;-78
2024/02/24 02:13:19;;;;;;;5.40;3.25;;;9.60;99.90;;;;;;5013993;28;20233;-78
2024/02/24 02:15:49;;;;;;;3.97;3.13;;;9.60;99.90;;;;;;5017283;28;20218;-78
2024/02/24 02:18:16;;;;;;;3.85;3.38;;;9.60;99.90;;;;;;5023926;28;20226;-80
2024/02/24 02:20:45;;;;;;;4.60;3.35;;;9.60;99.90;;;;;;5027400;28;20256;-78
2024/02/24 02:23:14;;;;;;;4.57;4.13;;;9.60;99.90;;;;;;5027258;28;20222;-78
2024/02/24 02:25:41;;;;;;;3.75;3.33;;;9.70;99.90;;;;;;5012979;28;20228;-78
2024/02/24 02:28:09;;;;;;;4.00;3.38;;;9.70;99.90;;;;;;5016611;28;20233;-78
2024/02/24 02:30:36;;;;;;;4.57;4.18;;;9.70;99.90;;;;;;5025564;28;20230;-80
2024/02/24 02:33:06;;;;;;;5.40;3.88;;;9.70;99.90;;;;;;5013256;28;20226;-79
2024/02/24 02:35:33;;;;;;;3.95;3.33;;;9.70;99.90;;;;;;5013595;28;20300;-78
2024/02/24 02:38:03;;;;;;;4.32;3.50;;;9.70;99.90;;;;;;5012262;28;20265;-78
2024/02/24 02:40:31;;;;;;;3.92;3.55;;;9.70;99.90;;;;;;5013704;28;20226;-78
2024/02/24 02:42:59;;;;;;;3.65;3.35;;;9.70;99.90;;;;;;5011923;28;20313;-78
2024/02/24 02:45:28;;;;;;;5.03;4.53;;;9.70;99.90;;;;;;5013591;28;20253;-79
2024/02/24 02:47:55;;;;;;;8.68;4.30;;;9.70;99.90;;;;;;5011542;28;20700;-79
2024/02/24 02:50:22;;;;;;;4.07;3.50;;;9.70;99.90;;;;;;5014626;28;20221;-80
2024/02/24 02:52:52;;;;;;;8.52;5.40;;;9.60;99.90;;;;;;5017878;28;20221;-78
2024/02/24 02:55:20;;;;;;;7.32;5.05;;;9.60;99.90;;;;;;5022049;28;20237;-79
2024/02/24 02:57:49;;;;;;;5.57;4.57;;;9.70;99.90;;;;;;5031004;28;20271;-79
2024/02/24 03:00:17;;;;;;;7.50;5.20;;;9.60;99.90;;;;;;5017221;28;20754;-80
2024/02/24 03:02:44;;;;;;;5.57;4.82;;;9.60;99.90;;;;;;5012287;28;20254;-79
2024/02/24 03:05:11;;;;;;;7.63;4.88;;;9.50;99.90;;;;;;5012203;28;20218;-79
2024/02/24 03:07:38;;;;;;;4.82;4.25;;;9.50;99.90;;;;;;5001925;28;20218;-79
2024/02/24 03:10:07;;;;;;;7.38;5.53;;;9.50;99.90;;;;;;5009709;28;20226;-79
2024/02/24 03:12:34;;;;;;;5.20;4.70;;;9.50;99.90;;;;;;5018558;28;20313;-80
2024/02/24 03:15:04;;;;;;;5.07;4.60;;;9.50;99.90;;;;;;5009351;28;20227;-79
2024/02/24 03:17:36;;;;;;;7.53;4.95;;;9.40;99.90;;;;;;4999800;28;20214;-78
2024/02/24 03:20:04;;;;;;;5.55;4.30;;;9.40;99.90;;;;;;4990821;28;20227;-78
2024/02/24 03:22:33;;;;;;;4.82;3.85;;;9.40;99.90;;;;;;4999258;28;20241;-78
2024/02/24 03:25:00;;;;;;;6.45;5.55;;;9.40;99.90;;;;;;4999475;28;20665;-78
2024/02/24 03:27:27;;;;;;;8.00;4.15;;;9.40;99.90;;;;;;5011507;28;20232;-79
2024/02/24 03:29:54;;;;;;;5.18;4.63;;;9.40;99.90;;;;;;5018873;28;20232;-78
2024/02/24 03:32:24;;;;;;;5.45;4.35;;;9.40;99.90;;;;;;5019355;28;20229;-78
2024/02/24 03:34:51;;;;;;;5.13;4.63;;;9.40;99.90;;;;;;5018889;28;20249;-79
2024/02/24 03:37:18;;;;;;;5.00;3.85;;;9.40;99.90;;;;;;5018949;28;20228;-80
2024/02/24 03:39:45;;;;;;;5.13;3.65;;;9.40;99.90;;;;;;5018988;28;20226;-80
2024/02/24 03:42:17;;;;;;;5.40;3.70;;;9.40;99.90;;;;;;5019265;28;20235;-78
2024/02/24 03:44:46;;;;;;;4.57;3.50;;;9.40;99.90;;;;;;5019320;28;20254;-79
2024/02/24 03:47:13;;;;;;;7.00;3.83;;;9.50;99.90;;;;;;5018638;28;20221;-77
2024/02/24 03:49:42;;;;;;;3.88;3.30;;;9.50;99.90;;;;;;5019351;28;20225;-78
2024/02/24 03:52:09;;;;;;;5.82;3.13;;;9.50;99.90;;;;;;5018739;28;20556;-79
2024/02/24 03:54:36;;;;;;;4.43;3.78;;;9.50;99.90;;;;;;5019449;28;20225;-78
2024/02/24 03:57:04;;;;;;;5.85;3.63;;;9.50;99.90;;;;;;5019198;28;20232;-80
2024/02/24 03:59:31;;;;;;;5.00;3.58;;;9.50;99.90;;;;;;5019289;28;20229;-78
2024/02/24 04:01:59;;;;;;;4.85;3.90;;;9.50;99.90;;;;;;5018875;28;20233;-80
2024/02/24 04:04:26;;;;;;;3.90;3.60;;;9.50;99.90;;;;;;5003842;28;20234;-79
2024/02/24 04:06:54;;;;;;;3.72;3.33;;;9.50;99.90;;;;;;5000202;28;20226;-80
2024/02/24 04:09:21;;;;;;;4.55;3.05;;;9.50;99.90;;;;;;5019236;28;20546;-79
2024/02/24 04:11:52;;;;;;;4.15;3.25;;;9.50;99.90;;;;;;5018944;28;20337;-80
2024/02/24 04:14:19;;;;;;;9.05;3.80;;;9.50;99.90;;;;;;5018629;28;20236;-80
2024/02/24 04:16:48;;;;;;;4.65;3.33;;;9.50;99.90;;;;;;5009234;28;20249;-79
2024/02/24 04:19:15;;;;;;;4.03;3.63;;;9.40;99.90;;;;;;5016067;28;20276;-79
2024/02/24 04:21:42;;;;;;;3.40;3.10;;;9.40;99.90;;;;;;5018978;28;20222;-80
2024/02/24 04:24:10;;;;;;;4.53;3.28;;;9.30;99.90;;;;;;5014991;28;20249;-79
2024/02/24 04:26:41;;;;;;;4.32;3.72;;;9.30;99.90;;;;;;5015738;28;20236;-79
2024/02/24 04:29:13;;;;;;;5.60;3.90;;;9.30;99.90;;;;;;5014874;28;20248;-78
2024/02/24 04:31:42;;;;;;;4.70;3.92;;;9.30;99.90;;;;;;5016181;28;20222;-78
2024/02/24 04:34:18;;;;;;;5.15;4.63;;;9.20;99.90;;;;;;5028658;28;20568;-78
2024/02/24 04:36:45;;;;;;;6.35;3.90;;;9.20;99.90;;;;;;5035661;28;20221;-78
2024/02/24 04:39:20;;;;;;;4.65;4.25;;;9.10;99.90;;;;;;5027368;28;20280;-79
2024/02/24 04:41:50;;;;;;;4.53;4.13;;;9.10;99.90;;;;;;5016632;28;20228;-78
2024/02/24 04:47:16;;;;;;;5.68;3.80;;;9.00;99.90;;;;;;5013949;28;20292;-78
2024/02/24 04:49:43;;;;;;;5.13;3.30;;;9.00;99.90;;;;;;5016295;28;20245;-79
2024/02/24 04:52:11;;;;;;;8.55;4.95;;;9.00;99.90;;;;;;5015591;28;20252;-78
2024/02/24 04:54:40;;;;;;;6.47;4.38;;;9.00;99.90;;;;;;5018622;28;20256;-79
2024/02/24 04:57:07;;;;;;;4.65;3.97;;;9.00;99.90;;;;;;5035218;28;20236;-78
2024/02/24 04:59:35;;;;;;;4.60;4.00;;;9.00;99.90;;;;;;5036067;28;20221;-79
2024/02/24 05:02:02;;;;;;;4.53;3.88;;;9.10;99.90;;;;;;5034398;28;20228;-78
2024/02/24 05:04:29;;;;;;;5.32;3.85;;;9.10;99.90;;;;;;5029841;28;20226;-78
2024/02/24 05:06:56;;;;;;;10.50;5.25;;;9.10;99.90;;;;;;5013406;28;20241;-78
2024/02/24 05:09:26;;;;;;;7.95;4.13;;;9.00;99.90;;;;;;5014477;28;20233;-78
2024/02/24 05:11:54;;;;;;;7.13;4.38;;;9.00;99.90;;;;;;5015211;28;20242;-78
2024/02/24 05:14:21;;;;;;;5.30;4.80;;;9.00;99.90;;;;;;5002715;28;20234;-79
2024/02/24 05:16:48;;;;;;;5.70;4.53;;;9.00;99.90;;;;;;5014454;28;20308;-78
2024/02/24 05:19:15;;;;;;;5.63;5.07;;;8.90;99.90;;;;;;5013759;28;20233;-79
2024/02/24 05:24:36;;;;;;;6.20;4.80;;;8.90;99.90;;;;;;5003664;28;20240;-78
2024/02/24 05:27:05;;;;;;;9.25;5.10;;;8.80;99.90;;;;;;5034707;28;20308;-78
2024/02/24 05:29:33;;;;;;;8.35;5.47;;;8.80;99.90;;;;;;5032995;28;20256;-78
2024/02/24 05:32:00;;;;;;;6.93;6.07;;;8.70;99.90;;;;;;5034720;28;20251;-78
2024/02/24 05:34:27;;;;;;;7.05;4.80;;;8.70;99.90;;;;;;5033056;28;20221;-78
2024/02/24 05:36:54;;;;;;;8.20;6.30;;;8.70;99.90;;;;;;5034519;28;20232;-78
2024/02/24 05:39:21;;;;;;;7.18;4.20;;;8.70;99.90;;;;;;5034071;28;20221;-78
2024/02/24 05:41:48;;;;;;;5.63;4.97;;;8.70;99.90;;;;;;5034436;28;20217;-78
2024/02/24 05:44:18;;;;;;;5.28;4.43;;;8.70;99.90;;;;;;5034371;28;20237;-78
2024/02/24 05:46:46;;;;;;;6.63;5.20;;;8.70;99.90;;;;;;5023796;28;20233;-78
2024/02/24 05:49:13;;;;;;;6.70;4.65;;;8.70;99.90;;;;;;5033553;28;20699;-77
2024/02/24 05:51:43;;;;;;;6.13;4.75;;;8.70;99.90;;;;;;5033682;28;20226;-78
2024/02/24 05:54:10;;;;;;;5.30;4.80;;;8.60;99.90;;;;;;5034260;28;20234;-78
2024/02/24 05:56:37;;;;;;;5.43;4.82;;;8.60;99.90;;;;;;5033679;28;20229;-78
2024/02/24 05:59:04;;;;;;;8.85;4.53;;;8.60;99.90;;;;;;5034269;28;20231;-78
2024/02/24 06:01:32;;;;;;;8.45;4.15;;;8.60;99.90;;;;;;5023442;28;20237;-78
2024/02/24 06:03:59;;;;;;;5.78;5.20;;;8.50;99.90;;;;;;5032960;28;20260;-78
2024/02/24 06:06:27;;;;;;;5.90;3.78;;;8.50;99.90;;;;;;5033674;28;20221;-77
2024/02/24 06:08:54;;;;;;;5.30;4.35;;;8.50;99.90;;;;;;5033878;28;20305;-78
2024/02/24 06:11:21;;;;;;;5.15;4.50;;;8.50;99.90;;;;;;5033685;28;20308;-77
2024/02/24 06:13:52;;;;;;;4.60;4.20;;;8.50;99.90;;;;;;5033366;28;20672;-77
2024/02/24 06:16:19;;;;;;;6.93;4.57;;;8.60;99.90;;;;;;5033872;28;20308;-78
2024/02/24 06:18:47;;;;;;;3.92;3.53;;;8.50;99.90;;;;;;5033039;28;20218;-78
2024/02/24 06:21:23;;;;;;;6.47;4.20;;;8.50;99.90;;;;;;5033698;28;20229;-78
2024/02/24 06:23:50;;;;;;;5.97;4.63;;;8.50;99.90;;;;;;5033369;28;20292;-77
2024/02/24 06:26:17;;;;;;;5.30;4.75;;;8.50;99.90;;;;;;5033292;28;20276;-78
2024/02/24 06:28:56;;;;;;;6.80;4.25;;;8.50;99.90;;;;;;5019080;28;20225;-78
2024/02/24 06:31:23;;;;;;;4.47;3.75;;;8.40;99.90;;;;;;5033289;28;20683;-78
2024/02/24 06:33:51;;;;;;;4.40;4.10;;;8.40;99.90;;;;;;5033463;28;20236;-78
2024/02/24 06:36:18;;;;;;;4.93;3.63;;;8.40;99.90;;;;;;5032947;28;20229;-77
2024/02/24 06:38:45;;;;;;;5.32;4.72;;;8.40;99.90;;;;;;5033477;28;20217;-78
2024/02/24 06:41:12;;;;;;;5.07;4.25;;;8.40;99.90;;;;;;5031889;28;20612;-78
2024/02/24 06:43:40;;;;;;;4.78;3.75;;;8.40;99.90;;;;;;5033268;28;20233;-77
2024/02/24 06:46:07;;;;;;;7.85;5.25;;;8.40;99.90;;;;;;5032756;28;20256;-77
2024/02/24 06:48:34;;;;;;;7.80;4.53;;;8.50;99.90;;;;;;5032768;28;20225;-77
2024/02/24 06:51:02;;;;;;;4.78;4.38;;;8.50;99.90;;;;;;5033365;28;20564;-77
2024/02/24 06:53:29;;;;;;;5.63;4.57;;;8.50;99.90;;;;;;5032943;28;20234;-77
2024/02/24 06:55:56;;;;;;;5.53;5.03;;;8.50;99.90;;;;;;5033169;28;20225;-78
2024/02/24 06:58:23;;;;;;;4.70;4.03;;;8.40;99.90;;;;;;5032650;28;20217;-78
2024/02/24 07:00:53;;;;;;;6.13;4.40;;;8.40;99.90;;;;;;5033180;28;20291;-77
2024/02/24 07:03:20;;;;;;;4.43;4.03;;;8.40;99.90;;;;;;5032752;28;20229;-77
2024/02/24 07:05:47;;;;;;;9.73;4.28;;;8.40;99.90;;;;;;5033097;28;20228;-77
2024/02/24 07:08:15;;;;;;;6.10;4.72;;;8.40;99.90;;;;;;5032432;28;20221;-78
2024/02/24 07:10:42;;;;;;;5.80;4.13;;;8.40;99.90;;;;;;5033078;28;20236;-78
2024/02/24 07:13:09;;;;;;;5.55;4.95;;;8.40;99.90;;;;;;5032770;28;20244;-78
2024/02/24 07:15:36;;;;;;;4.20;3.80;;;8.50;99.90;;;;;;5032563;28;20579;-77
2024/02/24 07:18:03;;;;;;;3.53;3.20;;;8.50;99.90;;;;;;5032826;28;20226;-77
2024/02/24 07:20:30;;;;;;;4.15;3.83;;;8.50;99.90;;;;;;5032045;28;20221;-77
2024/02/24 07:22:59;;;;;;;3.53;3.22;;;8.50;99.90;;;;;;5032775;28;20308;-78
2024/02/24 07:25:27;;;;;;;5.18;4.78;;;8.60;99.90;;;;;;5020775;28;20236;-78
2024/02/24 07:27:59;;;;;;;5.63;5.13;;;8.60;99.90;;;;;;5032157;28;20221;-77
2024/02/24 07:30:27;;;;;;;5.10;3.70;;;8.60;99.90;;;;;;5023541;28;20335;-77
2024/02/24 07:32:54;;;;;;;4.75;4.38;;;8.60;99.90;;;;;;5032735;28;20232;-78
2024/02/24 07:35:21;;;;;;;4.13;3.80;;;8.70;99.90;;;;;;5032830;28;20244;-78
2024/02/24 07:37:49;;;;;;;5.15;4.22;;;8.80;99.90;;;;;;5032383;28;20231;-78
2024/02/24 07:40:19;;;;;;;4.50;4.10;;;8.80;99.90;;;;;;5032819;28;20327;-79
2024/02/24 07:42:49;;;;;;;3.58;3.28;;;8.80;99.90;;;;;;5031916;28;20228;-78
2024/02/24 07:45:19;;;;;;;3.80;3.38;;;8.80;99.90;;;;;;5032622;28;20316;-78
2024/02/24 07:47:46;;;;;;;3.45;3.15;;;8.90;99.90;;;;;;5032210;28;20230;-79
2024/02/24 07:50:13;;;;;;;3.67;3.25;;;8.90;99.90;;;;;;5032523;28;20248;-78
2024/02/24 07:52:40;;;;;;;4.25;3.95;;;8.90;99.90;;;;;;5031922;28;20641;-78
2024/02/24 07:55:08;;;;;;;4.47;4.03;;;9.00;99.90;;;;;;5032809;28;20225;-78
2024/02/24 08:00:19;;;;;;;5.03;4.55;;;9.00;99.90;;;;;;5034772;28;20235;-78
2024/02/24 08:02:46;;;;;;;7.38;5.22;;;9.10;99.90;;;;;;5035367;28;20252;-77
2024/02/24 08:05:13;;;;;;;6.75;4.78;;;9.10;99.90;;;;;;5036173;28;20703;-78
2024/02/24 08:07:40;;;;;;;5.85;5.22;;;9.10;99.90;;;;;;5035514;28;20228;-77
2024/02/24 08:10:08;;;;;;;7.15;4.40;;;9.10;99.90;;;;;;5025272;28;20239;-78
2024/02/24 08:12:36;;;;;;;8.07;7.00;;;9.10;99.90;;;;;;5025389;28;20229;-78
2024/02/24 08:15:07;;;;;;;6.40;4.78;;;9.20;99.90;;;;;;5035757;28;20659;-78
2024/02/24 08:17:35;;;;;;;4.07;3.67;;;9.20;99.90;;;;;;5035775;28;20253;-78
2024/02/24 08:20:02;;;;;;;7.72;4.68;;;9.30;99.90;;;;;;5023533;28;20305;-78
2024/02/24 08:22:57;;;;;;;7.10;5.22;;;9.30;99.90;;;;;;5035622;28;20312;-77
2024/02/24 08:25:24;;;;;;;4.00;3.70;;;9.30;99.90;;;;;;5035379;28;20538;-78
2024/02/24 08:27:53;;;;;;;4.75;4.32;;;9.30;99.90;;;;;;5036063;28;20225;-78
2024/02/24 08:30:28;;;;;;;8.68;6.30;;;9.40;99.90;;;;;;5035661;28;20237;-78
2024/02/24 08:32:56;;;;;;;5.38;4.82;;;9.50;99.90;;;;;;5027032;28;20236;-78
2024/02/24 08:35:23;;;;;;;6.10;5.50;;;9.50;99.90;;;;;;5035542;28;20221;-78
2024/02/24 08:37:50;;;;;;;6.35;5.75;;;9.50;99.90;;;;;;5035302;28;20229;-78
2024/02/24 08:40:17;;;;;;;6.50;4.97;;;9.60;99.90;;;;;;5030422;28;20226;-77
2024/02/24 08:42:44;;;;;;;4.95;4.45;;;9.70;99.90;;;;;;5035167;28;20229;-78
2024/02/24 08:45:15;;;;;;;3.45;3.00;;;9.70;99.90;;;;;;5035514;28;20253;-77
2024/02/24 08:47:43;;;;;;;5.85;3.20;;;9.80;99.90;;;;;;5034941;28;20221;-78
2024/02/24 08:50:12;;;;;;;4.35;3.80;;;9.90;99.90;;;;;;5035454;28;20569;-78
2024/02/24 08:52:39;;;;;;;6.57;3.58;;;9.90;99.90;;;;;;5033486;28;20224;-77
2024/02/24 08:57:47;;;;;;;7.53;4.25;;;10.10;99.90;;;;;;5033953;28;20217;-77
2024/02/24 09:00:17;;;;;;;5.32;3.78;;;10.10;99.90;;;;;;5035400;28;20219;-78
2024/02/24 09:02:44;;;;;;;5.85;3.58;;;10.10;99.90;;;;;;5034815;28;20244;-78
2024/02/24 09:05:13;;;;;;;4.95;3.75;;;10.20;99.90;;;;;;5035245;28;20244;-78
2024/02/24 09:07:40;;;;;;;4.60;2.63;;;10.30;99.90;;;;;;5020790;28;20229;-78
2024/02/24 09:10:10;;;;;;;2.78;2.50;;;10.30;99.90;;;;;;5033557;28;20244;-78
2024/02/24 09:12:37;;;;;;;4.25;2.53;;;10.40;99.90;;;;;;5035057;28;20253;-78
2024/02/24 09:15:06;;;;;;;2.92;2.63;;;10.50;99.90;;;;;;5022938;28;20304;-78
2024/02/24 09:17:33;;;;;;;3.03;2.47;;;10.50;99.90;;;;;;5033936;28;20302;-78
2024/02/24 09:20:13;;;;;;;4.88;3.10;;;10.60;99.90;;;;;;5034509;28;20233;-79
2024/02/24 09:22:42;;;;;;;4.00;3.13;;;10.70;99.90;;;;;;5034682;28;20221;-78
2024/02/24 09:25:14;;;;;;;3.42;2.40;;;10.80;99.90;;;;;;5034726;28;20312;-78
2024/02/24 09:27:41;;;;;;;12.00;9.77;;;10.80;99.90;;;;;;5023760;28;20297;-78
2024/02/24 09:30:11;;;;;;;15.45;8.80;;;10.90;99.90;;;;;;5034256;28;20596;-78
2024/02/24 09:32:41;;;;;;;13.00;9.93;;;10.90;99.90;;;;;;5034467;28;20233;-78
2024/02/24 09:35:09;;;;;;;5.97;4.65;;;11.00;99.90;;;;;;5034416;28;20228;-78
2024/02/24 09:37:39;;;;;;;13.55;7.82;;;11.10;99.90;;;;;;5033849;28;20372;-78
2024/02/24 09:40:08;;;;;;;14.00;7.63;;;11.20;99.90;;;;;;5034678;28;20303;-78
2024/02/24 09:42:35;;;;;;;5.05;3.75;;;11.20;99.90;;;;;;5023721;28;20539;-78
2024/02/24 09:45:03;;;;;;;4.65;2.97;;;11.30;99.90;;;;;;5023759;28;20229;-78
2024/02/24 09:47:31;;;;;;;4.00;2.92;;;11.30;99.90;;;;;;5033592;28;20279;-78
2024/02/24 09:49:58;;;;;;;3.72;2.72;;;11.40;99.90;;;;;;5033436;28;20252;-79
2024/02/24 09:52:25;;;;;;;6.80;4.18;;;11.40;99.90;;;;;;5034222;28;20557;-78
2024/02/24 09:54:53;;;;;;;5.18;3.50;;;11.40;99.90;;;;;;5033689;28;20232;-78
2024/02/24 09:57:26;;;;;;;8.10;3.30;;;11.50;99.90;;;;;;5033918;28;20236;-78
2024/02/24 09:59:55;;;;;;;4.00;2.30;;;11.60;99.90;;;;;;5033401;28;20225;-79
2024/02/24 10:02:22;;;;;;;4.30;2.45;;;11.60;99.90;;;;;;5034267;28;20308;-79
2024/02/24 10:04:52;;;;;;;3.05;2.72;;;11.70;99.90;;;;;;5033675;28;20248;-79
2024/02/24 10:07:19;;;;;;;3.40;2.83;;;11.70;99.90;;;;;;5023211;28;20675;-78
2024/02/24 10:09:47;;;;;;;4.00;2.70;;;11.70;99.90;;;;;;5033443;28;20222;-79
2024/02/24 10:12:15;;;;;;;6.32;4.10;;;11.80;99.90;;;;;;5033956;28;20221;-79
2024/02/24 10:14:43;;;;;;;4.05;2.63;;;11.80;99.90;;;;;;5033521;28;20291;-79
2024/02/24 10:17:10;;;;;;;10.35;3.78;;;11.90;99.90;;;;;;5033904;28;20233;-78
2024/02/24 10:19:37;;;;;;;7.75;4.97;;;11.90;99.90;;;;;;5033447;28;20355;-78
2024/02/24 10:22:05;;;;;;;4.43;4.03;;;12.00;99.90;;;;;;5032578;28;20236;-78
2024/02/24 10:24:32;;;;;;;6.60;5.10;;;12.00;99.90;;;;;;5033677;28;20225;-77
2024/02/24 10:27:00;;;;;;;5.65;3.25;;;12.00;99.90;;;;;;5033190;28;20221;-77
2024/02/24 10:29:30;;;;;;;15.63;9.55;;;12.10;99.90;;;;;;5033447;28;20240;-77
2024/02/24 10:34:43;;;;;;;10.27;7.88;;;12.30;99.90;;;;;;5028100;28;20226;-78
2024/02/24 10:37:12;;;;;;;10.73;7.55;;;12.40;99.90;;;;;;5033357;28;20229;-78
2024/02/24 10:39:41;;;;;;;6.85;5.13;;;12.40;99.90;;;;;;5022642;28;20283;-78
2024/02/24 10:42:08;;;;;;;6.78;4.85;;;12.50;99.90;;;;;;5032718;28;20308;-78
2024/02/24 10:44:38;;;;;;;5.10;3.63;;;12.50;99.90;;;;;;5033318;28;20233;-78
2024/02/24 10:47:08;;;;;;;6.45;3.80;;;12.60;99.90;;;;;;5032882;28;20217;-78
2024/02/24 10:49:38;;;;;;;10.95;7.72;;;12.60;99.90;;;;;;5033321;28;20240;-78
2024/02/24 10:52:10;;;;;;;15.85;9.15;;;12.60;99.90;;;;;;5032892;28;20223;-78
2024/02/24 10:54:39;;;;;;;4.97;4.47;;;12.70;99.90;;;;;;5032507;28;20663;-78
2024/02/24 10:57:08;;;;;;;2.97;2.08;;;12.70;99.90;;;;;;5033093;28;20259;-78
2024/02/24 10:59:36;;;;;;;15.15;9.23;;;12.70;98.90;;;;;;5033423;28;20221;-78
2024/02/24 11:02:06;;;;;;;2.20;2.00;;;12.60;98.40;;;;;;5032566;28;20237;-78
2024/02/24 11:04:35;;;;;;;1.92;1.73;;;12.50;98.30;;;;;;5033025;28;20221;-78
2024/02/24 11:07:09;;;;;;;7.35;2.60;;;12.50;98.00;;;;;;5033185;28;20614;-78
2024/02/24 11:09:38;;;;;;;10.75;7.25;;;12.40;98.20;;;;;;5024223;28;20224;-78
2024/02/24 11:12:11;;;;;;;3.53;2.20;;;12.30;98.40;;;;;;5032381;28;20233;-78
2024/02/24 11:15:05;;;;;;;4.72;3.22;;;12.30;98.70;;;;;;5033026;28;20282;-78
2024/02/24 11:17:51;;;;;;;5.97;4.82;;;12.30;98.90;;;;;;5032919;28;20309;-78
2024/02/24 11:20:58;;;;;;;10.00;6.45;;;12.30;99.20;;;;;;5032421;28;20328;-78
2024/02/24 11:23:29;;;;;;;3.63;3.15;;;12.40;99.30;;;;;;5027035;28;20224;-78
2024/02/24 11:26:29;;;;;;;3.85;2.33;;;12.50;99.20;;;;;;5032964;28;20541;-77
2024/02/24 11:29:07;;;;;;;2.58;1.95;;;12.60;99.20;;;;;;5032474;28;20252;-76
2024/02/24 11:31:39;;;;;;;3.63;2.10;;;12.50;98.60;;;;;;5032781;28;20236;-77
2024/02/24 11:34:08;;;;;;;4.95;2.08;;;12.60;98.90;;;;;;5035632;28;20240;-77
2024/02/24 11:36:37;;;;;;;3.22;1.83;;;12.60;98.70;;;;;;5036850;28;20225;-78
2024/02/24 11:39:07;;;;;;;3.67;1.98;;;12.70;98.80;;;;;;5036162;28;20593;-78
2024/02/24 11:41:35;;;;;;;2.25;1.70;;;12.70;98.70;;;;;;5036721;28;20221;-78
2024/02/24 11:44:03;;;;;;;3.42;2.20;;;12.80;98.70;;;;;;5035383;28;20321;-78
2024/02/24 11:46:30;;;;;;;2.72;1.83;;;12.80;98.30;;;;;;5036441;28;20217;-77
2024/02/24 11:48:59;;;;;;;8.32;5.03;;;12.80;98.30;;;;;;5035671;28;20622;-77
2024/02/24 11:51:26;;;;;;;24.33;13.02;;;12.80;97.80;;;;;;5036295;28;20233;-77
2024/02/24 11:53:55;;;;;;;4.57;4.10;;;12.80;98.20;;;;;;5035073;28;20230;-77
2024/02/24 11:56:22;;;;;;;2.75;2.05;;;12.80;97.80;;;;;;5036445;28;21041;-78
2024/02/24 11:58:54;;;;;;;3.00;1.58;;;12.80;97.80;;;;;;5036560;28;20218;-78
2024/02/24 12:01:21;;;;;;;2.13;1.70;;;12.70;97.30;;;;;;5027111;28;20249;-78
2024/02/24 12:03:53;;;;;;;2.78;2.10;;;12.70;97.50;;;;;;5035821;28;20544;-78
2024/02/24 12:06:23;;;;;;;2.25;2.00;;;12.80;97.70;;;;;;5025736;28;20581;-78
2024/02/24 12:08:50;;;;;;;4.25;1.90;;;12.80;97.90;;;;;;5035759;28;20221;-77
2024/02/24 12:11:21;;;;;;;3.35;2.10;;;12.80;98.20;;;;;;5035443;28;20225;-77
2024/02/24 12:13:48;;;;;;;3.20;1.60;;;12.80;97.60;;;;;;5036262;28;20230;-77
2024/02/24 12:16:17;;;;;;;4.60;3.10;;;12.70;97.80;;;;;;5026695;28;20699;-77
2024/02/24 12:18:45;;;;;;;4.47;3.20;;;12.80;97.90;;;;;;5035956;28;20679;-77
2024/02/24 12:21:13;;;;;;;3.50;3.20;;;12.70;98.00;;;;;;5035214;28;20232;-77
2024/02/24 12:23:42;;;;;;;11.48;6.18;;;12.80;98.10;;;;;;5036336;28;20229;-77
2024/02/24 12:26:16;;;;;;;7.43;4.88;;;12.90;98.40;;;;;;5035115;28;20239;-77
2024/02/24 12:28:45;;;;;;;7.18;5.75;;;12.90;98.60;;;;;;5035974;28;20263;-77
2024/02/24 12:31:14;;;;;;;7.10;4.60;;;13.00;98.50;;;;;;5035400;28;20241;-78
2024/02/24 12:33:45;;;;;;;3.50;2.13;;;13.00;98.50;;;;;;5035613;28;20225;-77
2024/02/24 12:36:17;;;;;;;8.35;4.70;;;13.10;98.20;;;;;;5024909;28;20232;-77
2024/02/24 12:38:45;;;;;;;4.15;2.80;;;13.10;97.90;;;;;;5034813;28;20225;-77
2024/02/24 12:41:14;;;;;;;2.07;1.87;;;13.20;98.10;;;;;;5035218;28;20224;-77
2024/02/24 12:43:42;;;;;;;5.40;3.90;;;13.20;98.30;;;;;;5034448;28;20464;-77
2024/02/24 12:46:10;;;;;;;3.33;2.00;;;13.20;98.40;;;;;;5035373;28;20229;-77
2024/02/24 12:48:37;;;;;;;5.50;2.00;;;13.30;98.30;;;;;;5035181;28;20472;-78
2024/02/24 12:51:04;;;;;;;8.40;2.60;;;13.30;98.00;;;;;;5035156;28;20479;-77
2024/02/24 12:53:32;;;;;;;1.90;1.70;;;13.30;97.90;;;;;;5034982;28;20929;-77
2024/02/24 12:56:01;;;;;;;3.00;2.70;;;13.20;98.00;;;;;;5034916;28;20571;-77
2024/02/24 12:58:49;;;;;;;;;;;;;;;;;;;;;
2024/02/24 13:01:17;;;;;;;6.90;4.57;;;13.20;98.50;;;;;;5023653;28;20690;-77
2024/02/24 13:03:45;;;;;;;3.03;1.73;;;13.30;98.30;;;;;;5034942;28;20688;-77
2024/02/24 13:06:26;;;;;;;2.97;1.90;;;13.30;97.90;;;;;;5034952;28;20256;-78
2024/02/24 13:08:53;;;;;;;3.50;2.25;;;13.30;98.00;;;;;;5018668;28;20253;-79
2024/02/24 13:11:24;;;;;;;6.03;3.75;;;13.30;97.90;;;;;;5033257;28;20256;-78
2024/02/24 13:13:52;;;;;;;7.28;5.15;;;13.30;98.30;;;;;;5034955;28;20676;-78
2024/02/24 13:16:33;;;;;;;;;;;;;;;;;;;;;
2024/02/24 13:19:00;;;;;;;8.80;5.10;;;13.30;98.00;;;;;;5034538;28;20486;-78